sensor_id;sensor_type;location;lat;lon;timestamp;P1;durP1;ratioP1;P2;durP2;ratioP2
4385;SDS011;2207;53.540;10.042;2024-02-21T00:01:29;36.33;;;17.00;;
4385;SDS011;2207;53.540;10.042;2024-02-21T00:03:56;25.50;;;12.03;;
4385;SDS011;2207;53.540;10.042;2024-02-21T00:06:22;31.30;;;13.90;;
4385;SDS011;2207;53.540;10.042;2024-02-21T00:08:52;38.03;;;17.30;;
4385;SDS011;2207;53.540;10.042;2024-02-21T00:11:19;38.17;;;17.70;;
4385;SDS011;2207;53.540;10.042;2024-02-21T00:13:46;30.70;;;13.23;;
4385;SDS011;2207;53.540;10.042;2024-02-21T00:16:13;32.87;;;12.67;;
4385;SDS011;2207;53.540;10.042;2024-02-21T00:18:40;41.80;;;19.63;;
4385;SDS011;2207;53.540;10.042;2024-02-21T00:21:07;46.70;;;19.90;;
4385;SDS011;2207;53.540;10.042;2024-02-21T00:23:34;29.63;;;13.13;;
4385;SDS011;2207;53.540;10.042;2024-02-21T00:26:02;29.60;;;16.20;;
4385;SDS011;2207;53.540;10.042;2024-02-21T00:28:30;38.27;;;20.27;;
4385;SDS011;2207;53.540;10.042;2024-02-21T00:30:57;33.60;;;13.27;;
4385;SDS011;2207;53.540;10.042;2024-02-21T00:33:24;29.67;;;15.33;;
4385;SDS011;2207;53.540;10.042;2024-02-21T00:35:51;39.33;;;21.20;;
4385;SDS011;2207;53.540;10.042;2024-02-21T00:38:18;47.17;;;21.27;;
4385;SDS011;2207;53.540;10.042;2024-02-21T00:40:45;34.87;;;16.27;;
4385;SDS011;2207;53.540;10.042;2024-02-21T00:43:14;34.33;;;17.27;;
4385;SDS011;2207;53.540;10.042;2024-02-21T00:45:41;45.60;;;17.37;;
4385;SDS011;2207;53.540;10.042;2024-02-21T00:48:08;33.23;;;13.47;;
4385;SDS011;2207;53.540;10.042;2024-02-21T00:50:35;42.23;;;19.80;;
4385;SDS011;2207;53.540;10.042;2024-02-21T00:53:02;34.47;;;15.83;;
4385;SDS011;2207;53.540;10.042;2024-02-21T00:55:29;44.83;;;19.37;;
4385;SDS011;2207;53.540;10.042;2024-02-21T00:57:56;39.83;;;21.70;;
4385;SDS011;2207;53.540;10.042;2024-02-21T01:00:24;45.37;;;21.90;;
4385;SDS011;2207;53.540;10.042;2024-02-21T01:02:51;44.13;;;23.63;;
4385;SDS011;2207;53.540;10.042;2024-02-21T01:05:18;42.70;;;21.63;;
4385;SDS011;2207;53.540;10.042;2024-02-21T01:07:45;30.23;;;15.23;;
4385;SDS011;2207;53.540;10.042;2024-02-21T01:10:12;44.27;;;21.37;;
4385;SDS011;2207;53.540;10.042;2024-02-21T01:12:39;36.87;;;16.30;;
4385;SDS011;2207;53.540;10.042;2024-02-21T01:15:06;46.53;;;22.37;;
4385;SDS011;2207;53.540;10.042;2024-02-21T01:17:35;26.60;;;13.20;;
4385;SDS011;2207;53.540;10.042;2024-02-21T01:20:02;51.57;;;24.20;;
4385;SDS011;2207;53.540;10.042;2024-02-21T01:22:30;43.23;;;22.03;;
4385;SDS011;2207;53.540;10.042;2024-02-21T01:24:57;53.10;;;25.27;;
4385;SDS011;2207;53.540;10.042;2024-02-21T01:27:24;41.83;;;20.83;;
4385;SDS011;2207;53.540;10.042;2024-02-21T01:29:51;45.87;;;19.57;;
4385;SDS011;2207;53.540;10.042;2024-02-21T01:32:17;40.47;;;18.20;;
4385;SDS011;2207;53.540;10.042;2024-02-21T01:34:46;50.93;;;25.30;;
4385;SDS011;2207;53.540;10.042;2024-02-21T01:37:12;41.90;;;24.93;;
4385;SDS011;2207;53.540;10.042;2024-02-21T01:39:39;35.43;;;20.03;;
4385;SDS011;2207;53.540;10.042;2024-02-21T01:42:06;46.23;;;23.30;;
4385;SDS011;2207;53.540;10.042;2024-02-21T01:44:34;51.37;;;25.73;;
4385;SDS011;2207;53.540;10.042;2024-02-21T01:47:01;36.40;;;18.07;;
4385;SDS011;2207;53.540;10.042;2024-02-21T01:49:28;46.47;;;25.53;;
4385;SDS011;2207;53.540;10.042;2024-02-21T01:51:57;35.73;;;17.27;;
4385;SDS011;2207;53.540;10.042;2024-02-21T01:54:23;37.50;;;20.23;;
4385;SDS011;2207;53.540;10.042;2024-02-21T01:56:53;47.73;;;23.83;;
4385;SDS011;2207;53.540;10.042;2024-02-21T01:59:20;48.37;;;24.77;;
4385;SDS011;2207;53.540;10.042;2024-02-21T02:01:48;40.87;;;23.67;;
4385;SDS011;2207;53.540;10.042;2024-02-21T02:04:16;38.30;;;21.73;;
4385;SDS011;2207;53.540;10.042;2024-02-21T02:06:43;49.93;;;25.53;;
4385;SDS011;2207;53.540;10.042;2024-02-21T02:09:11;44.40;;;20.20;;
4385;SDS011;2207;53.540;10.042;2024-02-21T02:11:38;47.03;;;23.47;;
4385;SDS011;2207;53.540;10.042;2024-02-21T02:14:05;46.47;;;27.07;;
4385;SDS011;2207;53.540;10.042;2024-02-21T02:16:32;53.23;;;26.50;;
4385;SDS011;2207;53.540;10.042;2024-02-21T02:18:59;38.20;;;17.83;;
4385;SDS011;2207;53.540;10.042;2024-02-21T02:21:27;48.60;;;25.40;;
4385;SDS011;2207;53.540;10.042;2024-02-21T02:23:57;49.17;;;23.97;;
4385;SDS011;2207;53.540;10.042;2024-02-21T02:26:25;51.57;;;26.33;;
4385;SDS011;2207;53.540;10.042;2024-02-21T02:28:53;42.07;;;22.43;;
4385;SDS011;2207;53.540;10.042;2024-02-21T02:31:20;50.63;;;24.70;;
4385;SDS011;2207;53.540;10.042;2024-02-21T02:33:47;36.57;;;18.93;;
4385;SDS011;2207;53.540;10.042;2024-02-21T02:36:14;57.70;;;27.63;;
4385;SDS011;2207;53.540;10.042;2024-02-21T02:38:41;31.87;;;16.43;;
4385;SDS011;2207;53.540;10.042;2024-02-21T02:41:09;32.70;;;17.00;;
4385;SDS011;2207;53.540;10.042;2024-02-21T02:43:36;55.57;;;26.13;;
4385;SDS011;2207;53.540;10.042;2024-02-21T02:46:03;37.23;;;19.50;;
4385;SDS011;2207;53.540;10.042;2024-02-21T02:48:30;39.07;;;21.30;;
4385;SDS011;2207;53.540;10.042;2024-02-21T02:50:56;41.80;;;22.90;;
4385;SDS011;2207;53.540;10.042;2024-02-21T02:53:23;35.67;;;17.63;;
4385;SDS011;2207;53.540;10.042;2024-02-21T02:55:50;31.70;;;16.67;;
4385;SDS011;2207;53.540;10.042;2024-02-21T02:58:18;43.97;;;20.30;;
4385;SDS011;2207;53.540;10.042;2024-02-21T03:00:45;56.47;;;27.53;;
4385;SDS011;2207;53.540;10.042;2024-02-21T03:03:12;56.20;;;27.70;;
4385;SDS011;2207;53.540;10.042;2024-02-21T03:05:39;51.67;;;26.80;;
4385;SDS011;2207;53.540;10.042;2024-02-21T03:08:06;47.37;;;24.20;;
4385;SDS011;2207;53.540;10.042;2024-02-21T03:10:33;48.30;;;23.57;;
4385;SDS011;2207;53.540;10.042;2024-02-21T03:13:00;30.00;;;14.23;;
4385;SDS011;2207;53.540;10.042;2024-02-21T03:15:28;49.83;;;25.80;;
4385;SDS011;2207;53.540;10.042;2024-02-21T03:17:55;56.13;;;28.60;;
4385;SDS011;2207;53.540;10.042;2024-02-21T03:20:22;61.70;;;28.83;;
4385;SDS011;2207;53.540;10.042;2024-02-21T03:22:49;53.70;;;26.93;;
4385;SDS011;2207;53.540;10.042;2024-02-21T03:25:16;60.90;;;25.87;;
4385;SDS011;2207;53.540;10.042;2024-02-21T03:27:44;62.33;;;30.27;;
4385;SDS011;2207;53.540;10.042;2024-02-21T03:30:12;61.20;;;30.47;;
4385;SDS011;2207;53.540;10.042;2024-02-21T03:32:40;59.33;;;29.00;;
4385;SDS011;2207;53.540;10.042;2024-02-21T03:35:07;62.83;;;33.93;;
4385;SDS011;2207;53.540;10.042;2024-02-21T03:37:34;35.33;;;16.63;;
4385;SDS011;2207;53.540;10.042;2024-02-21T03:40:01;34.73;;;19.10;;
4385;SDS011;2207;53.540;10.042;2024-02-21T03:42:28;51.00;;;27.23;;
4385;SDS011;2207;53.540;10.042;2024-02-21T03:44:56;44.40;;;20.23;;
4385;SDS011;2207;53.540;10.042;2024-02-21T03:47:23;49.87;;;23.07;;
4385;SDS011;2207;53.540;10.042;2024-02-21T03:49:51;31.13;;;14.80;;
4385;SDS011;2207;53.540;10.042;2024-02-21T03:52:18;28.97;;;15.77;;
4385;SDS011;2207;53.540;10.042;2024-02-21T03:54:45;47.63;;;23.40;;
4385;SDS011;2207;53.540;10.042;2024-02-21T03:57:12;50.17;;;26.13;;
4385;SDS011;2207;53.540;10.042;2024-02-21T03:59:39;39.93;;;22.13;;
4385;SDS011;2207;53.540;10.042;2024-02-21T04:02:06;43.37;;;19.20;;
4385;SDS011;2207;53.540;10.042;2024-02-21T04:04:34;47.77;;;24.43;;
4385;SDS011;2207;53.540;10.042;2024-02-21T04:07:03;44.20;;;24.70;;
4385;SDS011;2207;53.540;10.042;2024-02-21T04:09:31;54.57;;;27.30;;
4385;SDS011;2207;53.540;10.042;2024-02-21T04:11:58;46.87;;;25.20;;
4385;SDS011;2207;53.540;10.042;2024-02-21T04:14:26;44.57;;;24.30;;
4385;SDS011;2207;53.540;10.042;2024-02-21T04:16:52;48.67;;;26.67;;
4385;SDS011;2207;53.540;10.042;2024-02-21T04:19:19;46.50;;;24.10;;
4385;SDS011;2207;53.540;10.042;2024-02-21T04:21:46;33.90;;;18.70;;
4385;SDS011;2207;53.540;10.042;2024-02-21T04:24:14;38.80;;;21.97;;
4385;SDS011;2207;53.540;10.042;2024-02-21T04:26:41;55.83;;;25.07;;
4385;SDS011;2207;53.540;10.042;2024-02-21T04:29:08;50.23;;;24.87;;
4385;SDS011;2207;53.540;10.042;2024-02-21T04:31:36;47.73;;;21.27;;
4385;SDS011;2207;53.540;10.042;2024-02-21T04:34:03;43.83;;;21.47;;
4385;SDS011;2207;53.540;10.042;2024-02-21T04:36:31;41.03;;;22.67;;
4385;SDS011;2207;53.540;10.042;2024-02-21T04:38:58;47.80;;;24.50;;
4385;SDS011;2207;53.540;10.042;2024-02-21T04:41:26;54.70;;;26.20;;
4385;SDS011;2207;53.540;10.042;2024-02-21T04:43:53;38.03;;;20.37;;
4385;SDS011;2207;53.540;10.042;2024-02-21T04:46:20;44.37;;;23.43;;
4385;SDS011;2207;53.540;10.042;2024-02-21T04:48:46;45.67;;;24.70;;
4385;SDS011;2207;53.540;10.042;2024-02-21T04:51:13;41.80;;;24.47;;
4385;SDS011;2207;53.540;10.042;2024-02-21T04:53:40;50.77;;;26.07;;
4385;SDS011;2207;53.540;10.042;2024-02-21T04:56:07;43.23;;;23.63;;
4385;SDS011;2207;53.540;10.042;2024-02-21T04:58:38;38.10;;;19.13;;
4385;SDS011;2207;53.540;10.042;2024-02-21T05:01:05;34.23;;;19.93;;
4385;SDS011;2207;53.540;10.042;2024-02-21T05:03:32;43.10;;;22.20;;
4385;SDS011;2207;53.540;10.042;2024-02-21T05:05:59;50.03;;;21.93;;
4385;SDS011;2207;53.540;10.042;2024-02-21T05:08:26;41.37;;;24.00;;
4385;SDS011;2207;53.540;10.042;2024-02-21T05:10:53;27.43;;;16.13;;
4385;SDS011;2207;53.540;10.042;2024-02-21T05:13:20;39.80;;;23.23;;
4385;SDS011;2207;53.540;10.042;2024-02-21T05:15:48;29.70;;;17.07;;
4385;SDS011;2207;53.540;10.042;2024-02-21T05:18:15;44.23;;;21.03;;
4385;SDS011;2207;53.540;10.042;2024-02-21T05:20:42;28.53;;;15.17;;
4385;SDS011;2207;53.540;10.042;2024-02-21T05:23:09;33.67;;;15.63;;
4385;SDS011;2207;53.540;10.042;2024-02-21T05:25:36;23.60;;;14.10;;
4385;SDS011;2207;53.540;10.042;2024-02-21T05:28:03;31.10;;;18.87;;
4385;SDS011;2207;53.540;10.042;2024-02-21T05:30:31;39.07;;;22.10;;
4385;SDS011;2207;53.540;10.042;2024-02-21T05:33:03;28.97;;;17.13;;
4385;SDS011;2207;53.540;10.042;2024-02-21T05:35:30;36.97;;;20.97;;
4385;SDS011;2207;53.540;10.042;2024-02-21T05:37:57;35.80;;;18.33;;
4385;SDS011;2207;53.540;10.042;2024-02-21T05:40:25;31.97;;;17.30;;
4385;SDS011;2207;53.540;10.042;2024-02-21T05:42:52;38.07;;;21.37;;
4385;SDS011;2207;53.540;10.042;2024-02-21T05:45:18;20.57;;;12.87;;
4385;SDS011;2207;53.540;10.042;2024-02-21T05:47:45;29.40;;;16.03;;
4385;SDS011;2207;53.540;10.042;2024-02-21T05:50:13;37.83;;;20.20;;
4385;SDS011;2207;53.540;10.042;2024-02-21T05:52:40;31.13;;;20.70;;
4385;SDS011;2207;53.540;10.042;2024-02-21T05:55:07;26.37;;;14.37;;
4385;SDS011;2207;53.540;10.042;2024-02-21T05:57:34;32.40;;;19.00;;
4385;SDS011;2207;53.540;10.042;2024-02-21T06:00:03;31.50;;;17.13;;
4385;SDS011;2207;53.540;10.042;2024-02-21T06:02:31;25.03;;;13.77;;
4385;SDS011;2207;53.540;10.042;2024-02-21T06:04:58;31.63;;;17.50;;
4385;SDS011;2207;53.540;10.042;2024-02-21T06:07:26;30.70;;;18.17;;
4385;SDS011;2207;53.540;10.042;2024-02-21T06:09:53;29.23;;;16.50;;
4385;SDS011;2207;53.540;10.042;2024-02-21T06:12:20;31.03;;;19.50;;
4385;SDS011;2207;53.540;10.042;2024-02-21T06:14:47;26.73;;;14.67;;
4385;SDS011;2207;53.540;10.042;2024-02-21T06:17:14;28.27;;;17.63;;
4385;SDS011;2207;53.540;10.042;2024-02-21T06:19:42;24.67;;;15.93;;
4385;SDS011;2207;53.540;10.042;2024-02-21T06:22:10;30.40;;;17.17;;
4385;SDS011;2207;53.540;10.042;2024-02-21T06:24:38;21.73;;;12.40;;
4385;SDS011;2207;53.540;10.042;2024-02-21T06:27:05;23.20;;;15.03;;
4385;SDS011;2207;53.540;10.042;2024-02-21T06:29:32;26.00;;;14.23;;
4385;SDS011;2207;53.540;10.042;2024-02-21T06:31:59;24.90;;;15.80;;
4385;SDS011;2207;53.540;10.042;2024-02-21T06:34:26;20.83;;;11.30;;
4385;SDS011;2207;53.540;10.042;2024-02-21T06:36:53;25.67;;;15.37;;
4385;SDS011;2207;53.540;10.042;2024-02-21T06:39:20;15.50;;;9.63;;
4385;SDS011;2207;53.540;10.042;2024-02-21T06:41:49;17.83;;;10.60;;
4385;SDS011;2207;53.540;10.042;2024-02-21T06:44:18;23.07;;;12.80;;
4385;SDS011;2207;53.540;10.042;2024-02-21T06:46:45;18.33;;;13.37;;
4385;SDS011;2207;53.540;10.042;2024-02-21T06:49:12;23.90;;;13.93;;
4385;SDS011;2207;53.540;10.042;2024-02-21T06:51:41;23.10;;;12.60;;
4385;SDS011;2207;53.540;10.042;2024-02-21T06:54:08;20.67;;;13.67;;
4385;SDS011;2207;53.540;10.042;2024-02-21T06:56:35;20.57;;;11.67;;
4385;SDS011;2207;53.540;10.042;2024-02-21T06:59:04;16.80;;;10.57;;
4385;SDS011;2207;53.540;10.042;2024-02-21T07:01:31;19.40;;;12.00;;
4385;SDS011;2207;53.540;10.042;2024-02-21T07:03:58;21.83;;;12.97;;
4385;SDS011;2207;53.540;10.042;2024-02-21T07:06:25;21.57;;;12.60;;
4385;SDS011;2207;53.540;10.042;2024-02-21T07:08:51;22.43;;;13.57;;
4385;SDS011;2207;53.540;10.042;2024-02-21T07:11:18;20.83;;;12.67;;
4385;SDS011;2207;53.540;10.042;2024-02-21T07:13:45;23.73;;;13.70;;
4385;SDS011;2207;53.540;10.042;2024-02-21T07:16:12;24.40;;;13.47;;
4385;SDS011;2207;53.540;10.042;2024-02-21T07:18:39;23.07;;;14.00;;
4385;SDS011;2207;53.540;10.042;2024-02-21T07:21:06;20.03;;;12.53;;
4385;SDS011;2207;53.540;10.042;2024-02-21T07:23:33;18.27;;;11.03;;
4385;SDS011;2207;53.540;10.042;2024-02-21T07:25:59;23.63;;;13.20;;
4385;SDS011;2207;53.540;10.042;2024-02-21T07:28:26;13.97;;;9.57;;
4385;SDS011;2207;53.540;10.042;2024-02-21T07:30:53;20.20;;;11.77;;
4385;SDS011;2207;53.540;10.042;2024-02-21T07:33:21;18.23;;;11.07;;
4385;SDS011;2207;53.540;10.042;2024-02-21T07:35:48;23.50;;;13.83;;
4385;SDS011;2207;53.540;10.042;2024-02-21T07:38:15;15.23;;;9.77;;
4385;SDS011;2207;53.540;10.042;2024-02-21T07:40:44;18.87;;;10.97;;
4385;SDS011;2207;53.540;10.042;2024-02-21T07:43:11;16.30;;;11.10;;
4385;SDS011;2207;53.540;10.042;2024-02-21T07:45:38;19.57;;;12.17;;
4385;SDS011;2207;53.540;10.042;2024-02-21T07:48:05;20.30;;;13.20;;
4385;SDS011;2207;53.540;10.042;2024-02-21T07:50:34;19.97;;;12.40;;
4385;SDS011;2207;53.540;10.042;2024-02-21T07:53:00;19.13;;;12.53;;
4385;SDS011;2207;53.540;10.042;2024-02-21T07:55:27;13.47;;;8.80;;
4385;SDS011;2207;53.540;10.042;2024-02-21T07:57:54;17.67;;;11.80;;
4385;SDS011;2207;53.540;10.042;2024-02-21T08:00:21;16.40;;;10.90;;
4385;SDS011;2207;53.540;10.042;2024-02-21T08:02:48;18.80;;;12.27;;
4385;SDS011;2207;53.540;10.042;2024-02-21T08:05:15;17.47;;;11.27;;
4385;SDS011;2207;53.540;10.042;2024-02-21T08:07:44;19.10;;;12.17;;
4385;SDS011;2207;53.540;10.042;2024-02-21T08:10:10;20.73;;;12.93;;
4385;SDS011;2207;53.540;10.042;2024-02-21T08:12:38;18.00;;;10.77;;
4385;SDS011;2207;53.540;10.042;2024-02-21T08:15:05;11.80;;;7.77;;
4385;SDS011;2207;53.540;10.042;2024-02-21T08:17:33;9.17;;;5.87;;
4385;SDS011;2207;53.540;10.042;2024-02-21T08:20:00;9.70;;;6.00;;
4385;SDS011;2207;53.540;10.042;2024-02-21T08:22:27;10.53;;;6.17;;
4385;SDS011;2207;53.540;10.042;2024-02-21T08:24:56;10.10;;;5.67;;
4385;SDS011;2207;53.540;10.042;2024-02-21T08:27:23;13.07;;;5.47;;
4385;SDS011;2207;53.540;10.042;2024-02-21T08:29:49;14.20;;;5.20;;
4385;SDS011;2207;53.540;10.042;2024-02-21T08:32:16;13.90;;;5.00;;
4385;SDS011;2207;53.540;10.042;2024-02-21T08:34:43;11.30;;;5.50;;
4385;SDS011;2207;53.540;10.042;2024-02-21T08:37:10;12.00;;;5.27;;
4385;SDS011;2207;53.540;10.042;2024-02-21T08:39:37;14.40;;;4.73;;
4385;SDS011;2207;53.540;10.042;2024-02-21T08:42:05;20.07;;;5.47;;
4385;SDS011;2207;53.540;10.042;2024-02-21T08:44:32;10.60;;;4.63;;
4385;SDS011;2207;53.540;10.042;2024-02-21T08:46:59;13.70;;;4.73;;
4385;SDS011;2207;53.540;10.042;2024-02-21T08:49:28;18.57;;;5.00;;
4385;SDS011;2207;53.540;10.042;2024-02-21T08:51:56;18.30;;;4.70;;
4385;SDS011;2207;53.540;10.042;2024-02-21T08:54:23;19.63;;;4.90;;
4385;SDS011;2207;53.540;10.042;2024-02-21T08:56:50;19.90;;;4.50;;
4385;SDS011;2207;53.540;10.042;2024-02-21T08:59:18;18.43;;;4.40;;
4385;SDS011;2207;53.540;10.042;2024-02-21T09:01:45;13.47;;;4.90;;
4385;SDS011;2207;53.540;10.042;2024-02-21T09:04:12;16.67;;;5.20;;
4385;SDS011;2207;53.540;10.042;2024-02-21T09:06:39;12.20;;;4.53;;
4385;SDS011;2207;53.540;10.042;2024-02-21T09:09:07;20.53;;;5.60;;
4385;SDS011;2207;53.540;10.042;2024-02-21T09:11:35;15.23;;;4.83;;
4385;SDS011;2207;53.540;10.042;2024-02-21T09:14:02;14.47;;;4.10;;
4385;SDS011;2207;53.540;10.042;2024-02-21T09:16:31;14.60;;;4.70;;
4385;SDS011;2207;53.540;10.042;2024-02-21T09:18:58;12.50;;;4.53;;
4385;SDS011;2207;53.540;10.042;2024-02-21T09:21:25;18.60;;;4.93;;
4385;SDS011;2207;53.540;10.042;2024-02-21T09:23:53;20.83;;;5.10;;
4385;SDS011;2207;53.540;10.042;2024-02-21T09:26:19;14.77;;;4.00;;
4385;SDS011;2207;53.540;10.042;2024-02-21T09:28:46;13.13;;;3.80;;
4385;SDS011;2207;53.540;10.042;2024-02-21T09:31:13;22.03;;;4.37;;
4385;SDS011;2207;53.540;10.042;2024-02-21T09:33:41;17.17;;;4.00;;
4385;SDS011;2207;53.540;10.042;2024-02-21T09:36:08;12.10;;;3.10;;
4385;SDS011;2207;53.540;10.042;2024-02-21T09:38:35;15.13;;;3.53;;
4385;SDS011;2207;53.540;10.042;2024-02-21T09:41:04;16.07;;;3.97;;
4385;SDS011;2207;53.540;10.042;2024-02-21T09:43:40;20.03;;;4.17;;
4385;SDS011;2207;53.540;10.042;2024-02-21T09:46:11;17.33;;;5.07;;
4385;SDS011;2207;53.540;10.042;2024-02-21T09:48:47;17.10;;;5.10;;
4385;SDS011;2207;53.540;10.042;2024-02-21T09:51:25;11.93;;;5.07;;
4385;SDS011;2207;53.540;10.042;2024-02-21T09:53:54;18.00;;;5.40;;
4385;SDS011;2207;53.540;10.042;2024-02-21T09:56:23;16.40;;;5.90;;
4385;SDS011;2207;53.540;10.042;2024-02-21T09:58:50;16.57;;;6.33;;
4385;SDS011;2207;53.540;10.042;2024-02-21T10:01:20;20.90;;;6.63;;
4385;SDS011;2207;53.540;10.042;2024-02-21T10:03:49;19.13;;;6.77;;
4385;SDS011;2207;53.540;10.042;2024-02-21T10:06:15;13.70;;;7.13;;
4385;SDS011;2207;53.540;10.042;2024-02-21T10:08:42;12.40;;;6.17;;
4385;SDS011;2207;53.540;10.042;2024-02-21T10:11:09;12.53;;;7.70;;
4385;SDS011;2207;53.540;10.042;2024-02-21T10:13:36;17.67;;;9.00;;
4385;SDS011;2207;53.540;10.042;2024-02-21T10:16:04;18.20;;;10.20;;
4385;SDS011;2207;53.540;10.042;2024-02-21T10:18:32;17.07;;;10.13;;
4385;SDS011;2207;53.540;10.042;2024-02-21T10:21:04;20.60;;;12.13;;
4385;SDS011;2207;53.540;10.042;2024-02-21T10:26:23;17.30;;;10.33;;
4385;SDS011;2207;53.540;10.042;2024-02-21T10:28:50;32.67;;;15.67;;
4385;SDS011;2207;53.540;10.042;2024-02-21T10:31:22;34.87;;;16.63;;
4385;SDS011;2207;53.540;10.042;2024-02-21T10:33:56;29.17;;;16.57;;
4385;SDS011;2207;53.540;10.042;2024-02-21T10:36:25;29.13;;;15.33;;
4385;SDS011;2207;53.540;10.042;2024-02-21T10:38:52;30.73;;;16.57;;
4385;SDS011;2207;53.540;10.042;2024-02-21T10:41:20;41.77;;;19.17;;
4385;SDS011;2207;53.540;10.042;2024-02-21T10:43:49;35.37;;;16.87;;
4385;SDS011;2207;53.540;10.042;2024-02-21T10:46:18;42.57;;;20.23;;
4385;SDS011;2207;53.540;10.042;2024-02-21T10:48:46;42.33;;;21.03;;
4385;SDS011;2207;53.540;10.042;2024-02-21T10:51:17;43.37;;;19.67;;
4385;SDS011;2207;53.540;10.042;2024-02-21T10:53:50;44.10;;;22.80;;
4385;SDS011;2207;53.540;10.042;2024-02-21T10:56:26;47.90;;;22.57;;
4385;SDS011;2207;53.540;10.042;2024-02-21T10:58:55;34.67;;;16.83;;
4385;SDS011;2207;53.540;10.042;2024-02-21T11:01:24;42.33;;;19.23;;
4385;SDS011;2207;53.540;10.042;2024-02-21T11:03:54;45.70;;;20.73;;
4385;SDS011;2207;53.540;10.042;2024-02-21T11:06:22;30.43;;;15.37;;
4385;SDS011;2207;53.540;10.042;2024-02-21T11:09:05;33.40;;;16.47;;
4385;SDS011;2207;53.540;10.042;2024-02-21T11:11:33;47.43;;;19.87;;
4385;SDS011;2207;53.540;10.042;2024-02-21T11:14:07;31.47;;;17.13;;
4385;SDS011;2207;53.540;10.042;2024-02-21T11:16:35;37.63;;;17.67;;
4385;SDS011;2207;53.540;10.042;2024-02-21T11:19:04;39.83;;;18.93;;
4385;SDS011;2207;53.540;10.042;2024-02-21T11:21:34;35.90;;;17.80;;
4385;SDS011;2207;53.540;10.042;2024-02-21T11:24:02;38.00;;;18.40;;
4385;SDS011;2207;53.540;10.042;2024-02-21T11:26:30;26.87;;;13.33;;
4385;SDS011;2207;53.540;10.042;2024-02-21T11:28:58;27.17;;;14.13;;
4385;SDS011;2207;53.540;10.042;2024-02-21T11:31:26;24.20;;;12.10;;
4385;SDS011;2207;53.540;10.042;2024-02-21T11:33:53;20.40;;;9.63;;
4385;SDS011;2207;53.540;10.042;2024-02-21T11:36:24;30.30;;;15.93;;
4385;SDS011;2207;53.540;10.042;2024-02-21T11:38:51;19.27;;;11.67;;
4385;SDS011;2207;53.540;10.042;2024-02-21T11:41:26;23.87;;;13.17;;
4385;SDS011;2207;53.540;10.042;2024-02-21T11:43:55;22.30;;;12.20;;
4385;SDS011;2207;53.540;10.042;2024-02-21T11:46:22;27.77;;;13.47;;
4385;SDS011;2207;53.540;10.042;2024-02-21T11:48:49;29.57;;;14.70;;
4385;SDS011;2207;53.540;10.042;2024-02-21T11:51:22;22.50;;;12.27;;
4385;SDS011;2207;53.540;10.042;2024-02-21T11:53:51;22.67;;;13.07;;
4385;SDS011;2207;53.540;10.042;2024-02-21T11:56:19;27.00;;;11.27;;
4385;SDS011;2207;53.540;10.042;2024-02-21T11:58:47;22.80;;;10.93;;
4385;SDS011;2207;53.540;10.042;2024-02-21T12:01:16;24.67;;;13.93;;
4385;SDS011;2207;53.540;10.042;2024-02-21T12:03:43;21.83;;;12.27;;
4385;SDS011;2207;53.540;10.042;2024-02-21T12:06:15;20.40;;;11.43;;
4385;SDS011;2207;53.540;10.042;2024-02-21T12:08:45;23.50;;;12.27;;
4385;SDS011;2207;53.540;10.042;2024-02-21T12:11:21;29.87;;;14.27;;
4385;SDS011;2207;53.540;10.042;2024-02-21T12:13:58;23.23;;;12.63;;
4385;SDS011;2207;53.540;10.042;2024-02-21T12:16:28;20.70;;;11.63;;
4385;SDS011;2207;53.540;10.042;2024-02-21T12:18:55;19.80;;;9.97;;
4385;SDS011;2207;53.540;10.042;2024-02-21T12:21:24;26.10;;;12.37;;
4385;SDS011;2207;53.540;10.042;2024-02-21T12:23:53;12.17;;;7.47;;
4385;SDS011;2207;53.540;10.042;2024-02-21T12:26:20;22.43;;;9.10;;
4385;SDS011;2207;53.540;10.042;2024-02-21T12:28:46;7.30;;;4.97;;
4385;SDS011;2207;53.540;10.042;2024-02-21T12:31:13;14.83;;;8.10;;
4385;SDS011;2207;53.540;10.042;2024-02-21T12:33:42;11.43;;;7.20;;
4385;SDS011;2207;53.540;10.042;2024-02-21T12:36:10;18.93;;;9.60;;
4385;SDS011;2207;53.540;10.042;2024-02-21T12:38:36;26.17;;;12.50;;
4385;SDS011;2207;53.540;10.042;2024-02-21T12:41:03;13.30;;;6.37;;
4385;SDS011;2207;53.540;10.042;2024-02-21T12:43:30;22.33;;;11.77;;
4385;SDS011;2207;53.540;10.042;2024-02-21T12:45:58;21.93;;;11.93;;
4385;SDS011;2207;53.540;10.042;2024-02-21T12:48:25;24.70;;;12.40;;
4385;SDS011;2207;53.540;10.042;2024-02-21T12:50:53;26.23;;;14.23;;
4385;SDS011;2207;53.540;10.042;2024-02-21T12:53:20;30.33;;;15.43;;
4385;SDS011;2207;53.540;10.042;2024-02-21T12:55:48;19.73;;;9.50;;
4385;SDS011;2207;53.540;10.042;2024-02-21T12:58:15;26.23;;;14.17;;
4385;SDS011;2207;53.540;10.042;2024-02-21T13:00:42;26.70;;;15.20;;
4385;SDS011;2207;53.540;10.042;2024-02-21T13:03:09;29.27;;;14.90;;
4385;SDS011;2207;53.540;10.042;2024-02-21T13:05:36;23.70;;;13.90;;
4385;SDS011;2207;53.540;10.042;2024-02-21T13:08:05;37.13;;;15.47;;
4385;SDS011;2207;53.540;10.042;2024-02-21T13:10:32;22.97;;;11.17;;
4385;SDS011;2207;53.540;10.042;2024-02-21T13:13:00;28.60;;;14.57;;
4385;SDS011;2207;53.540;10.042;2024-02-21T13:15:27;28.60;;;14.13;;
4385;SDS011;2207;53.540;10.042;2024-02-21T13:17:54;31.70;;;15.20;;
4385;SDS011;2207;53.540;10.042;2024-02-21T13:20:22;21.27;;;12.90;;
4385;SDS011;2207;53.540;10.042;2024-02-21T13:22:49;27.57;;;14.00;;
4385;SDS011;2207;53.540;10.042;2024-02-21T13:25:17;22.23;;;12.97;;
4385;SDS011;2207;53.540;10.042;2024-02-21T13:27:46;24.23;;;13.33;;
4385;SDS011;2207;53.540;10.042;2024-02-21T13:30:13;27.67;;;14.70;;
4385;SDS011;2207;53.540;10.042;2024-02-21T13:32:42;25.20;;;12.83;;
4385;SDS011;2207;53.540;10.042;2024-02-21T13:35:11;24.97;;;12.00;;
4385;SDS011;2207;53.540;10.042;2024-02-21T13:37:38;22.07;;;13.13;;
4385;SDS011;2207;53.540;10.042;2024-02-21T13:40:05;23.07;;;13.40;;
4385;SDS011;2207;53.540;10.042;2024-02-21T13:42:36;24.17;;;13.33;;
4385;SDS011;2207;53.540;10.042;2024-02-21T13:45:04;23.03;;;13.10;;
4385;SDS011;2207;53.540;10.042;2024-02-21T13:47:31;16.20;;;8.83;;
4385;SDS011;2207;53.540;10.042;2024-02-21T13:49:58;18.40;;;11.03;;
4385;SDS011;2207;53.540;10.042;2024-02-21T13:52:25;25.13;;;12.00;;
4385;SDS011;2207;53.540;10.042;2024-02-21T13:54:52;24.40;;;13.17;;
4385;SDS011;2207;53.540;10.042;2024-02-21T13:57:19;22.93;;;12.77;;
4385;SDS011;2207;53.540;10.042;2024-02-21T13:59:47;13.47;;;8.80;;
4385;SDS011;2207;53.540;10.042;2024-02-21T14:02:14;22.97;;;13.23;;
4385;SDS011;2207;53.540;10.042;2024-02-21T14:04:41;21.70;;;12.67;;
4385;SDS011;2207;53.540;10.042;2024-02-21T14:07:08;26.37;;;13.87;;
4385;SDS011;2207;53.540;10.042;2024-02-21T14:09:35;19.80;;;11.53;;
4385;SDS011;2207;53.540;10.042;2024-02-21T14:12:02;15.70;;;10.03;;
4385;SDS011;2207;53.540;10.042;2024-02-21T14:14:33;24.20;;;10.80;;
4385;SDS011;2207;53.540;10.042;2024-02-21T14:17:01;24.67;;;11.27;;
4385;SDS011;2207;53.540;10.042;2024-02-21T14:19:28;20.07;;;10.60;;
4385;SDS011;2207;53.540;10.042;2024-02-21T14:21:55;14.90;;;8.67;;
4385;SDS011;2207;53.540;10.042;2024-02-21T14:24:22;22.07;;;11.50;;
4385;SDS011;2207;53.540;10.042;2024-02-21T14:26:49;17.83;;;11.07;;
4385;SDS011;2207;53.540;10.042;2024-02-21T14:29:16;14.77;;;8.47;;
4385;SDS011;2207;53.540;10.042;2024-02-21T14:31:43;21.70;;;9.70;;
4385;SDS011;2207;53.540;10.042;2024-02-21T14:34:11;17.80;;;9.20;;
4385;SDS011;2207;53.540;10.042;2024-02-21T14:36:38;20.07;;;10.30;;
4385;SDS011;2207;53.540;10.042;2024-02-21T14:39:05;15.70;;;9.50;;
4385;SDS011;2207;53.540;10.042;2024-02-21T14:41:32;18.87;;;9.97;;
4385;SDS011;2207;53.540;10.042;2024-02-21T14:44:00;15.60;;;9.77;;